Time;durP1;ratioP1;P1;durP2;ratioP2;P2;SDS_P1;SDS_P2;PMS_P1;PMS_P2;Temp;Humidity;BMP_temperature;BMP_pressure;BME280_temperature;BME280_humidity;BME280_pressure;Samples;Min_cycle;Max_cycle;Signal;HPM_P1;HPM_P2
2023/01/12 04:58:19;;;;;;;7.78;1.50;;;4.20;99.90;;;;;;5581938;23;20284;-74
2023/01/12 05:00:45;;;;;;;4.78;1.65;;;4.20;99.90;;;;;;5014613;28;20592;-74
2023/01/12 05:03:13;;;;;;;7.57;1.70;;;4.30;99.90;;;;;;5014548;28;20212;-74
2023/01/12 05:05:40;;;;;;;8.50;1.50;;;4.30;99.90;;;;;;5014544;28;20213;-74
2023/01/12 05:10:52;;;;;;;4.85;1.75;;;4.50;99.90;;;;;;5014594;28;20217;-74
2023/01/12 05:13:20;;;;;;;6.00;1.48;;;4.50;99.90;;;;;;5015740;28;20237;-74
2023/01/12 05:15:47;;;;;;;4.43;1.73;;;4.40;99.90;;;;;;5014329;28;20205;-74
2023/01/12 05:18:14;;;;;;;4.45;1.73;;;4.40;99.90;;;;;;5014272;28;20229;-75
2023/01/12 05:20:41;;;;;;;8.73;1.52;;;4.40;99.90;;;;;;5013939;28;20751;-74
2023/01/12 05:23:07;;;;;;;7.80;1.80;;;4.40;99.90;;;;;;5013841;28;20712;-75
2023/01/12 05:25:34;;;;;;;8.88;1.92;;;4.40;99.90;;;;;;5013815;28;20688;-74
2023/01/12 05:28:01;;;;;;;5.88;1.50;;;4.50;99.90;;;;;;5013780;28;20597;-75
2023/01/12 05:30:30;;;;;;;4.18;1.50;;;4.50;99.90;;;;;;5014165;28;20209;-74
2023/01/12 05:32:56;;;;;;;6.95;1.20;;;4.60;99.90;;;;;;5013802;28;20582;-74
2023/01/12 05:35:23;;;;;;;5.10;1.73;;;4.60;99.90;;;;;;5014097;28;20202;-76
2023/01/12 05:37:50;;;;;;;8.73;1.95;;;4.60;99.90;;;;;;5013944;28;20224;-76
2023/01/12 05:40:17;;;;;;;5.15;1.73;;;4.60;99.90;;;;;;5013984;28;20588;-77
2023/01/12 05:45:29;;;;;;;1.77;1.13;;;4.40;99.90;;;;;;5013815;28;20248;-76
2023/01/12 05:48:00;;;;;;;5.72;1.45;;;4.40;99.90;;;;;;5013815;28;20225;-75
2023/01/12 05:50:27;;;;;;;9.60;2.20;;;4.40;99.90;;;;;;5013576;28;20685;-74
2023/01/12 05:52:54;;;;;;;7.07;1.63;;;4.40;99.90;;;;;;5013600;28;20210;-74
2023/01/12 05:55:21;;;;;;;6.68;1.27;;;4.40;99.90;;;;;;5013821;28;20206;-72
2023/01/12 05:57:47;;;;;;;6.88;1.70;;;4.50;99.90;;;;;;5013743;28;20233;-73
2023/01/12 06:00:15;;;;;;;9.20;1.60;;;4.50;99.90;;;;;;5013416;28;20232;-73
2023/01/12 06:02:43;;;;;;;10.77;1.92;;;4.50;99.90;;;;;;5013684;28;20201;-73
2023/01/12 06:05:10;;;;;;;5.05;1.40;;;4.50;99.90;;;;;;5013764;28;20276;-73
2023/01/12 06:07:37;;;;;;;7.35;1.70;;;4.50;99.90;;;;;;5013682;28;20217;-73
2023/01/12 06:10:04;;;;;;;8.63;1.80;;;4.50;99.90;;;;;;5013590;28;20681;-73
2023/01/12 06:15:15;;;;;;;2.05;1.10;;;4.70;99.90;;;;;;5013653;28;20200;-73
2023/01/12 06:17:43;;;;;;;4.22;1.65;;;4.70;99.90;;;;;;5013633;28;20221;-74
2023/01/12 06:20:13;;;;;;;3.47;1.50;;;4.60;99.90;;;;;;5013553;28;20229;-73
2023/01/12 06:22:40;;;;;;;6.35;1.75;;;4.60;99.90;;;;;;5013838;28;20194;-73
2023/01/12 06:25:08;;;;;;;3.38;1.52;;;4.60;99.90;;;;;;5013292;28;20688;-73
2023/01/12 06:27:37;;;;;;;7.68;2.00;;;4.50;99.90;;;;;;5013235;28;20739;-73
2023/01/12 06:30:04;;;;;;;9.52;1.55;;;4.40;99.90;;;;;;5013499;28;20277;-73
2023/01/12 06:32:31;;;;;;;3.60;1.30;;;4.30;99.90;;;;;;5013233;28;20206;-73
2023/01/12 06:34:59;;;;;;;4.88;1.70;;;4.30;99.90;;;;;;5013515;28;20209;-73
2023/01/12 06:37:26;;;;;;;3.53;1.27;;;4.30;99.90;;;;;;5013943;28;20228;-73
2023/01/12 06:39:53;;;;;;;7.80;1.80;;;4.30;99.90;;;;;;5013464;28;20218;-73
2023/01/12 06:42:28;;;;;;;4.93;1.50;;;4.20;99.90;;;;;;5013461;28;20703;-73
2023/01/12 06:44:55;;;;;;;6.47;1.73;;;4.10;99.90;;;;;;5013818;28;20189;-73
2023/01/12 06:47:22;;;;;;;4.40;1.48;;;4.10;99.90;;;;;;5013494;28;20225;-73
2023/01/12 06:49:50;;;;;;;5.72;1.40;;;4.10;99.90;;;;;;5013194;28;20209;-73
2023/01/12 06:52:19;;;;;;;3.70;1.85;;;4.10;99.90;;;;;;5013381;28;20207;-73
2023/01/12 06:54:46;;;;;;;2.38;1.55;;;4.00;99.90;;;;;;5013563;28;20198;-73
2023/01/12 06:57:13;;;;;;;5.95;1.80;;;4.00;99.90;;;;;;5013341;28;20237;-73
2023/01/12 06:59:41;;;;;;;6.93;1.90;;;4.00;99.90;;;;;;5013128;28;20250;-73
2023/01/12 07:02:11;;;;;;;9.40;2.40;;;4.10;99.90;;;;;;5013804;28;20256;-73
2023/01/12 07:04:38;;;;;;;8.20;1.60;;;4.10;99.90;;;;;;5014038;28;20252;-73
2023/01/12 07:07:05;;;;;;;6.32;1.75;;;4.10;99.90;;;;;;5017213;28;20198;-73
2023/01/12 07:09:33;;;;;;;9.95;1.30;;;4.20;99.90;;;;;;5026457;28;20229;-72
2023/01/12 07:12:00;;;;;;;6.38;1.30;;;4.30;99.90;;;;;;5021443;28;20206;-72
2023/01/12 07:14:27;;;;;;;4.20;1.30;;;4.30;99.90;;;;;;5018157;28;20206;-72
2023/01/12 07:16:53;;;;;;;7.65;2.05;;;4.40;99.90;;;;;;5018053;28;20202;-72
2023/01/12 07:19:20;;;;;;;3.60;1.25;;;4.50;99.90;;;;;;5017025;28;20225;-72
2023/01/12 07:21:48;;;;;;;3.17;0.98;;;4.50;99.90;;;;;;5016916;28;20225;-73
2023/01/12 07:24:15;;;;;;;4.15;1.30;;;4.50;99.90;;;;;;5016388;28;20684;-73
2023/01/12 07:26:43;;;;;;;2.08;1.10;;;4.50;99.90;;;;;;5016513;28;20213;-73
2023/01/12 07:29:10;;;;;;;4.95;1.58;;;4.50;99.90;;;;;;5016142;28;20740;-73
2023/01/12 07:31:37;;;;;;;2.97;1.27;;;4.50;99.90;;;;;;5016384;28;20264;-73
2023/01/12 07:34:04;;;;;;;6.28;1.23;;;4.60;99.90;;;;;;5016445;28;20565;-73
2023/01/12 07:36:31;;;;;;;4.47;1.20;;;4.60;99.90;;;;;;5016294;28;20206;-73
2023/01/12 07:38:58;;;;;;;3.33;1.40;;;4.60;99.90;;;;;;5016124;28;20284;-73
2023/01/12 07:44:10;;;;;;;4.80;1.50;;;4.60;99.90;;;;;;5016146;28;20176;-73
2023/01/12 07:46:36;;;;;;;5.25;1.38;;;4.70;99.90;;;;;;5016077;28;20202;-73
2023/01/12 07:49:03;;;;;;;3.60;1.77;;;4.70;99.90;;;;;;5015878;28;20228;-73
2023/01/12 07:51:30;;;;;;;2.17;1.23;;;4.90;99.90;;;;;;5015623;28;20572;-73
2023/01/12 07:53:57;;;;;;;6.10;1.45;;;4.80;99.90;;;;;;5015937;28;20572;-73
2023/01/12 07:56:24;;;;;;;6.32;1.48;;;4.80;99.90;;;;;;5015591;28;20206;-73
2023/01/12 07:58:50;;;;;;;4.75;1.58;;;4.80;99.90;;;;;;5015880;28;20229;-73
2023/01/12 08:01:18;;;;;;;5.30;1.40;;;4.70;99.90;;;;;;5015435;28;20218;-73
2023/01/12 08:03:45;;;;;;;3.28;1.45;;;4.80;99.90;;;;;;5015707;28;20261;-73
2023/01/12 08:06:12;;;;;;;2.20;1.02;;;4.90;99.90;;;;;;5015646;28;20206;-73
2023/01/12 08:08:39;;;;;;;4.10;1.10;;;4.90;99.90;;;;;;5015578;28;20242;-73
2023/01/12 08:11:09;;;;;;;2.83;1.23;;;4.80;99.90;;;;;;5015558;28;20225;-73
2023/01/12 08:13:36;;;;;;;7.47;1.15;;;4.80;99.90;;;;;;5015480;28;20596;-73
2023/01/12 08:16:08;;;;;;;3.53;1.30;;;5.00;99.90;;;;;;5015507;28;20210;-73
2023/01/12 08:18:40;;;;;;;6.72;1.30;;;5.00;99.90;;;;;;5015457;28;20226;-73
2023/01/12 08:21:11;;;;;;;4.80;1.48;;;5.10;99.90;;;;;;5015437;28;20217;-73
2023/01/12 08:23:42;;;;;;;2.58;1.05;;;5.20;99.90;;;;;;5015467;28;20193;-73
2023/01/12 08:26:15;;;;;;;10.05;1.48;;;5.20;99.90;;;;;;5015388;28;20210;-73
2023/01/12 08:28:46;;;;;;;3.83;1.30;;;5.20;99.90;;;;;;5015363;28;20241;-73
2023/01/12 08:31:15;;;;;;;2.58;0.95;;;5.10;99.90;;;;;;5015334;28;20182;-73
2023/01/12 08:33:44;;;;;;;1.73;0.70;;;5.10;99.90;;;;;;5015212;28;20205;-73
2023/01/12 08:36:14;;;;;;;5.10;1.30;;;5.10;99.90;;;;;;5015143;28;20209;-73
2023/01/12 08:38:41;;;;;;;3.90;1.13;;;5.10;99.90;;;;;;5015081;28;20233;-73
2023/01/12 08:44:04;;;;;;;8.15;1.30;;;5.10;99.90;;;;;;5015083;28;20688;-73
2023/01/12 08:46:33;;;;;;;3.63;1.40;;;5.10;99.90;;;;;;5015031;28;20186;-73
2023/01/12 08:49:01;;;;;;;3.75;1.13;;;5.10;99.90;;;;;;5014815;28;20230;-73
2023/01/12 08:51:28;;;;;;;1.88;1.15;;;5.00;99.90;;;;;;5014512;28;20658;-73
2023/01/12 08:53:55;;;;;;;3.20;1.27;;;5.00;99.90;;;;;;5015206;28;20198;-73
2023/01/12 08:56:22;;;;;;;1.92;0.90;;;5.10;99.90;;;;;;5015267;28;20202;-73
2023/01/12 08:58:49;;;;;;;4.13;1.23;;;5.10;99.90;;;;;;5014717;28;20230;-73
2023/01/12 09:01:18;;;;;;;3.50;1.20;;;5.10;99.90;;;;;;5014453;28;20229;-73
2023/01/12 09:03:45;;;;;;;8.98;1.23;;;5.10;99.90;;;;;;5014965;28;20279;-73
2023/01/12 09:06:16;;;;;;;2.63;1.00;;;5.20;99.90;;;;;;5015576;28;20641;-73
2023/01/12 09:08:43;;;;;;;3.85;0.90;;;5.20;99.90;;;;;;5014590;28;20360;-73
2023/01/12 09:11:13;;;;;;;2.00;1.05;;;5.30;99.90;;;;;;5014572;28;20205;-73
2023/01/12 09:13:40;;;;;;;5.70;1.45;;;5.30;99.90;;;;;;5014552;28;20214;-73
2023/01/12 09:16:09;;;;;;;6.35;1.67;;;5.40;99.90;;;;;;5014412;28;20202;-72
2023/01/12 09:18:36;;;;;;;4.07;1.48;;;5.40;99.90;;;;;;5014321;28;20244;-73
2023/01/12 09:21:05;;;;;;;10.30;1.30;;;5.40;99.90;;;;;;5014013;28;20287;-73
2023/01/12 09:23:33;;;;;;;2.58;1.33;;;5.40;99.90;;;;;;5014034;28;20580;-73
2023/01/12 09:26:05;;;;;;;2.95;1.10;;;5.40;99.90;;;;;;5014215;28;20213;-73
2023/01/12 09:28:32;;;;;;;5.32;1.00;;;5.50;99.90;;;;;;5013777;28;20228;-73
2023/01/12 09:31:03;;;;;;;2.72;0.68;;;5.50;99.90;;;;;;5014248;28;20233;-73
2023/01/12 09:33:30;;;;;;;3.97;1.02;;;5.60;99.90;;;;;;5013818;28;20666;-73
2023/01/12 09:36:01;;;;;;;3.30;1.15;;;5.60;99.90;;;;;;5013901;28;20260;-73
2023/01/12 09:38:28;;;;;;;3.05;1.00;;;5.70;99.90;;;;;;5013993;28;20270;-73
2023/01/12 09:40:58;;;;;;;5.25;1.40;;;5.70;99.90;;;;;;5013631;28;20264;-73
2023/01/12 09:49:01;;;;;;;5.72;1.77;;;5.80;99.90;;;;;;5013916;28;20267;-74
2023/01/12 09:51:33;;;;;;;5.55;2.00;;;5.80;99.90;;;;;;5013780;28;20198;-73
2023/01/12 09:54:00;;;;;;;3.25;1.75;;;6.00;99.90;;;;;;5013828;28;20595;-74
2023/01/12 09:56:34;;;;;;;3.10;1.42;;;6.00;99.90;;;;;;5013784;28;20213;-73
2023/01/12 09:59:22;;;;;;;2.95;1.83;;;6.00;99.90;;;;;;5013805;28;20237;-73
2023/01/12 10:01:51;;;;;;;3.45;1.83;;;6.00;99.90;;;;;;5013327;28;20218;-73
2023/01/12 10:04:18;;;;;;;1.92;1.27;;;5.90;99.90;;;;;;5013701;28;20205;-73
2023/01/12 10:06:45;;;;;;;3.30;1.20;;;5.80;99.90;;;;;;5013718;28;20285;-73
2023/01/12 10:09:18;;;;;;;2.58;1.20;;;5.80;99.90;;;;;;5013255;28;20739;-73
2023/01/12 10:11:57;;;;;;;5.18;1.63;;;5.90;99.90;;;;;;5013677;28;20190;-73
2023/01/12 10:14:39;;;;;;;2.13;1.17;;;5.90;99.90;;;;;;5013474;28;20190;-73
2023/01/12 10:17:31;;;;;;;4.40;1.30;;;5.90;99.90;;;;;;5013732;28;20182;-73
2023/01/12 10:20:09;;;;;;;1.67;1.00;;;5.80;99.90;;;;;;5011448;28;20228;-73
2023/01/12 10:22:41;;;;;;;6.00;1.63;;;5.90;99.90;;;;;;5013362;28;20692;-73
2023/01/12 10:25:21;;;;;;;3.92;0.90;;;5.90;99.90;;;;;;5013371;28;20641;-73
2023/01/12 10:27:51;;;;;;;3.88;1.10;;;6.00;99.90;;;;;;5013504;28;20245;-73
2023/01/12 10:30:24;;;;;;;3.17;1.33;;;6.00;99.90;;;;;;5013310;28;20631;-73
2023/01/12 10:32:51;;;;;;;4.78;1.52;;;5.90;99.90;;;;;;5013637;28;20209;-73
2023/01/12 10:35:20;;;;;;;3.33;1.40;;;5.90;99.90;;;;;;5013215;28;20692;-73
2023/01/12 10:37:49;;;;;;;2.53;1.60;;;5.90;99.90;;;;;;5013372;28;20229;-73
2023/01/12 10:40:26;;;;;;;6.35;1.73;;;5.90;99.90;;;;;;5014323;28;20202;-73
2023/01/12 10:43:20;;;;;;;3.53;1.67;;;5.90;99.90;;;;;;5017414;28;20193;-73
2023/01/12 10:46:08;;;;;;;3.65;1.50;;;6.00;99.90;;;;;;5017957;28;20201;-73
2023/01/12 10:48:37;;;;;;;3.53;1.25;;;6.10;99.90;;;;;;5017525;28;20236;-73
2023/01/12 10:51:06;;;;;;;4.25;1.30;;;6.10;99.90;;;;;;5016900;28;20684;-73
2023/01/12 10:53:40;;;;;;;2.50;0.90;;;6.20;99.90;;;;;;5017023;28;20202;-73
2023/01/12 10:56:20;;;;;;;3.70;0.80;;;6.30;99.90;;;;;;5016728;28;20183;-73
2023/01/12 10:58:54;;;;;;;1.00;0.90;;;6.20;99.90;;;;;;5016991;28;20280;-73
2023/01/12 11:01:22;;;;;;;4.40;1.17;;;6.20;99.90;;;;;;5016557;28;20630;-73
2023/01/12 11:03:49;;;;;;;1.35;1.20;;;6.40;99.90;;;;;;5017022;28;20225;-73
2023/01/12 11:06:26;;;;;;;2.97;1.23;;;6.40;99.90;;;;;;5016443;28;20551;-73
2023/01/12 11:08:53;;;;;;;1.73;1.20;;;6.30;99.90;;;;;;5016775;28;20225;-73
2023/01/12 11:11:28;;;;;;;3.45;0.95;;;6.30;99.90;;;;;;5016727;28;20198;-73
2023/01/12 11:13:58;;;;;;;2.10;1.15;;;6.20;99.90;;;;;;5017294;28;20593;-73
2023/01/12 11:16:28;;;;;;;2.97;0.95;;;6.30;99.90;;;;;;5016420;28;20210;-73
2023/01/12 11:19:17;;;;;;;2.67;0.80;;;6.40;99.90;;;;;;5016612;28;20222;-75
2023/01/12 11:21:48;;;;;;;5.32;1.27;;;6.70;99.90;;;;;;5016731;28;20217;-73
2023/01/12 11:24:23;;;;;;;2.50;1.00;;;6.70;99.90;;;;;;5016640;28;20209;-73
2023/01/12 11:26:55;;;;;;;2.65;1.13;;;6.80;99.90;;;;;;5016703;28;20217;-75
2023/01/12 11:29:36;;;;;;;3.83;1.30;;;6.80;99.90;;;;;;5016425;28;20226;-74
2023/01/12 11:32:07;;;;;;;2.72;1.20;;;6.90;99.90;;;;;;5016464;28;20183;-74
2023/01/12 11:34:38;;;;;;;7.85;1.33;;;6.90;99.90;;;;;;5016554;28;20186;-75
2023/01/12 11:37:11;;;;;;;2.90;1.10;;;6.90;99.90;;;;;;5016171;28;20653;-72
2023/01/12 11:39:39;;;;;;;5.18;1.00;;;6.90;99.90;;;;;;5016634;28;20198;-72
2023/01/12 11:45:05;;;;;;;3.33;0.90;;;6.90;99.90;;;;;;5016298;28;20194;-71
2023/01/12 11:47:36;;;;;;;4.50;1.10;;;6.80;99.90;;;;;;5016278;28;20222;-71
2023/01/12 11:50:10;;;;;;;2.90;1.02;;;6.80;99.90;;;;;;5016353;28;20190;-70
2023/01/12 11:52:37;;;;;;;4.20;1.00;;;6.80;99.90;;;;;;5015505;28;20657;-71
2023/01/12 11:55:04;;;;;;;1.70;1.20;;;6.70;99.90;;;;;;5016329;28;20208;-71
2023/01/12 11:57:51;;;;;;;3.38;1.10;;;6.70;99.90;;;;;;5016065;28;20218;-71
2023/01/12 12:00:33;;;;;;;3.80;1.00;;;6.70;99.90;;;;;;5015757;28;20608;-70
2023/01/12 12:03:15;;;;;;;3.75;1.42;;;6.70;99.90;;;;;;5016198;28;20206;-72
2023/01/12 12:05:49;;;;;;;4.65;1.40;;;6.90;99.90;;;;;;5015893;28;20186;-71
2023/01/12 12:08:28;;;;;;;3.95;1.05;;;6.80;99.90;;;;;;5015811;28;20221;-71
2023/01/12 12:10:59;;;;;;;6.18;1.10;;;6.80;99.90;;;;;;5015480;28;20197;-72
2023/01/12 12:13:31;;;;;;;2.20;0.80;;;6.80;99.90;;;;;;5015754;28;20205;-72
2023/01/12 12:16:16;;;;;;;2.28;1.10;;;6.80;99.90;;;;;;5015941;28;20198;-72
2023/01/12 12:19:04;;;;;;;1.05;0.93;;;6.80;99.90;;;;;;5015717;28;20245;-72
2023/01/12 12:21:45;;;;;;;1.30;1.20;;;6.80;99.90;;;;;;5015681;28;20225;-72
2023/01/12 12:24:26;;;;;;;2.35;0.90;;;6.80;99.90;;;;;;5016035;28;20190;-72
2023/01/12 12:26:59;;;;;;;3.58;0.85;;;6.80;99.90;;;;;;5015902;28;20190;-72
2023/01/12 12:29:42;;;;;;;1.40;0.90;;;7.00;99.90;;;;;;5015624;28;20604;-72
2023/01/12 12:32:19;;;;;;;1.25;0.82;;;7.10;99.90;;;;;;5015799;28;20524;-72
2023/01/12 12:35:02;;;;;;;1.30;0.98;;;7.10;99.90;;;;;;5015919;28;20197;-73
2023/01/12 12:37:39;;;;;;;0.70;0.60;;;7.00;99.90;;;;;;5015192;28;20709;-74
2023/01/12 12:40:17;;;;;;;4.38;0.95;;;7.10;99.90;;;;;;5015358;28;20189;-75
2023/01/12 12:46:00;;;;;;;1.92;0.88;;;7.40;99.90;;;;;;4974604;28;20199;-75
2023/01/12 12:48:38;;;;;;;1.85;0.75;;;7.30;99.90;;;;;;4974047;28;20230;-75
2023/01/12 12:51:07;;;;;;;1.45;0.50;;;7.40;99.90;;;;;;4996654;28;20571;-75
2023/01/12 12:53:37;;;;;;;2.47;0.77;;;7.40;99.90;;;;;;5014771;28;20229;-75
2023/01/12 12:56:07;;;;;;;0.70;0.70;;;7.40;99.90;;;;;;5014851;28;20206;-75
2023/01/12 12:58:43;;;;;;;2.17;1.10;;;7.50;99.90;;;;;;5014321;28;20717;-75
2023/01/12 13:01:57;;;;;;;2.13;0.95;;;7.60;99.90;;;;;;5014217;28;20217;-73
2023/01/12 13:05:02;;;;;;;0.93;0.60;;;7.70;99.90;;;;;;5013966;28;20198;-72
2023/01/12 13:07:29;;;;;;;0.68;0.63;;;7.60;99.90;;;;;;5014683;28;20226;-73
2023/01/12 13:10:28;;;;;;;2.85;0.50;;;7.60;99.90;;;;;;5014274;28;20692;-73
2023/01/12 13:12:58;;;;;;;0.68;0.68;;;7.50;99.90;;;;;;5015182;28;20236;-73
2023/01/12 13:15:35;;;;;;;1.15;0.80;;;7.50;99.90;;;;;;5014954;28;20202;-73
2023/01/12 13:18:04;;;;;;;0.85;0.80;;;7.50;99.90;;;;;;5014387;28;20724;-73
2023/01/12 13:20:54;;;;;;;0.65;0.65;;;7.50;99.90;;;;;;5015316;28;20230;-73
2023/01/12 13:23:50;;;;;;;0.60;0.60;;;7.50;99.90;;;;;;5012653;28;20312;-72
2023/01/12 13:26:40;;;;;;;0.65;0.65;;;7.50;99.90;;;;;;5014508;28;20253;-72
2023/01/12 13:29:48;;;;;;;3.95;0.70;;;7.60;99.90;;;;;;5011168;28;20233;-72
2023/01/12 13:32:35;;;;;;;3.35;0.60;;;7.50;99.90;;;;;;5009074;28;20202;-72
2023/01/12 13:35:02;;;;;;;0.95;0.70;;;7.50;99.90;;;;;;5014218;28;20202;-72
2023/01/12 13:37:44;;;;;;;2.75;0.65;;;7.40;99.90;;;;;;5015028;28;20230;-72
2023/01/12 13:40:18;;;;;;;0.32;0.32;;;7.40;99.90;;;;;;5014586;28;20570;-74
2023/01/12 13:45:30;;;;;;;1.35;0.60;;;7.40;99.90;;;;;;5014281;28;20182;-73
2023/01/12 13:47:57;;;;;;;2.22;0.73;;;7.40;99.90;;;;;;5014201;28;20222;-73
2023/01/12 13:50:26;;;;;;;2.83;0.75;;;7.50;99.90;;;;;;5014070;28;20209;-73
2023/01/12 13:52:58;;;;;;;0.77;0.77;;;7.50;99.90;;;;;;5014030;28;20208;-73
2023/01/12 13:55:27;;;;;;;1.65;0.70;;;7.60;99.90;;;;;;5013971;28;20202;-73
2023/01/12 13:57:59;;;;;;;1.30;0.75;;;7.60;99.90;;;;;;5014048;28;20557;-73
2023/01/12 14:00:28;;;;;;;3.13;0.60;;;7.50;99.90;;;;;;5013665;28;20633;-74
2023/01/12 14:02:56;;;;;;;3.08;1.00;;;7.50;99.90;;;;;;5013568;28;20586;-73
2023/01/12 14:05:48;;;;;;;1.83;0.70;;;7.50;99.90;;;;;;5014097;28;20229;-73
2023/01/12 14:08:37;;;;;;;1.70;0.85;;;7.50;99.90;;;;;;5011839;28;20232;-74
2023/01/12 14:11:15;;;;;;;1.13;0.70;;;7.50;99.90;;;;;;5014418;28;20192;-73
2023/01/12 14:17:47;;;;;;;0.82;0.82;;;7.50;99.90;;;;;;5013651;28;20193;-72
2023/01/12 14:19:41;;;;;;;1.33;0.65;;;7.50;99.90;;;;;;5017417;28;20754;-73
2023/01/12 14:22:17;;;;;;;2.30;0.60;;;7.60;99.90;;;;;;5017655;28;20218;-73
2023/01/12 14:24:45;;;;;;;1.58;0.57;;;7.40;99.90;;;;;;5017764;28;20193;-73
2023/01/12 14:27:16;;;;;;;1.92;0.73;;;7.50;99.90;;;;;;5017488;28;20205;-72
2023/01/12 14:29:43;;;;;;;1.52;1.00;;;7.40;99.90;;;;;;5017480;28;20206;-73
2023/01/12 14:32:12;;;;;;;1.05;0.65;;;7.40;99.90;;;;;;5017419;28;20201;-72
2023/01/12 14:34:45;;;;;;;1.65;0.70;;;7.40;99.90;;;;;;5017133;28;20670;-72
2023/01/12 14:37:26;;;;;;;1.42;0.80;;;7.40;99.90;;;;;;5017329;28;20210;-72
2023/01/12 14:39:55;;;;;;;0.75;0.50;;;7.50;99.90;;;;;;5017442;28;20217;-72
2023/01/12 14:48:23;;;;;;;0.60;0.60;;;7.50;99.90;;;;;;5017179;28;20217;-74
2023/01/12 14:51:16;;;;;;;0.52;0.50;;;7.40;99.90;;;;;;5017188;28;20206;-73
2023/01/12 14:53:45;;;;;;;0.82;0.50;;;7.50;99.90;;;;;;5017319;28;20182;-72
2023/01/12 14:56:23;;;;;;;1.80;0.82;;;7.60;99.90;;;;;;5017093;28;20206;-72
2023/01/12 14:58:50;;;;;;;2.10;0.52;;;7.50;99.90;;;;;;5016914;28;20229;-72
2023/01/12 15:01:35;;;;;;;1.90;0.90;;;7.40;99.90;;;;;;5016761;28;20210;-72
2023/01/12 15:04:02;;;;;;;0.93;0.60;;;7.40;99.90;;;;;;5016934;28;20205;-72
2023/01/12 15:06:29;;;;;;;2.35;0.70;;;7.40;99.90;;;;;;5016917;28;20191;-72
2023/01/12 15:08:59;;;;;;;1.70;0.90;;;7.40;99.90;;;;;;5016887;28;20300;-72
2023/01/12 15:11:32;;;;;;;0.63;0.60;;;7.30;99.90;;;;;;5016996;28;20198;-73
2023/01/12 15:14:00;;;;;;;2.63;0.60;;;7.30;99.90;;;;;;5016758;28;20229;-72
2023/01/12 15:27:28;;;;;;;1.40;0.60;;;7.20;99.90;;;;;;5015862;28;20269;-71
2023/01/12 15:29:54;;;;;;;1.48;0.88;;;7.10;99.90;;;;;;5016595;28;20209;-72
2023/01/12 15:32:27;;;;;;;1.27;0.77;;;7.00;99.90;;;;;;5016359;28;20249;-72
2023/01/12 15:34:54;;;;;;;1.73;0.95;;;7.00;99.90;;;;;;5017118;28;20186;-72
2023/01/12 15:37:21;;;;;;;4.30;0.98;;;6.90;99.90;;;;;;5016226;28;20205;-71
2023/01/12 15:39:47;;;;;;;2.00;0.60;;;6.90;99.90;;;;;;5016249;28;20216;-72
2023/01/12 15:42:16;;;;;;;1.13;0.82;;;7.00;99.90;;;;;;5016182;28;20222;-72
2023/01/12 15:44:44;;;;;;;2.70;0.73;;;6.90;99.90;;;;;;5015927;28;20201;-72
2023/01/12 15:47:12;;;;;;;1.75;0.75;;;6.90;99.90;;;;;;5015968;28;20202;-71
2023/01/12 15:49:39;;;;;;;0.65;0.60;;;6.90;99.90;;;;;;5016049;28;20290;-72
2023/01/12 15:52:10;;;;;;;0.70;0.70;;;6.80;99.90;;;;;;5015955;28;20202;-72
2023/01/12 15:54:37;;;;;;;1.67;0.77;;;6.90;99.90;;;;;;5016046;28;20241;-72
2023/01/12 15:57:03;;;;;;;2.30;0.70;;;6.90;99.90;;;;;;5016068;28;20206;-71
2023/01/12 15:59:30;;;;;;;1.50;0.60;;;6.90;99.90;;;;;;5015869;28;20222;-71
2023/01/12 16:01:58;;;;;;;1.38;0.80;;;6.90;99.90;;;;;;5015492;28;20209;-71
2023/01/12 16:04:25;;;;;;;1.45;0.90;;;7.00;99.90;;;;;;5015734;28;20229;-71
2023/01/12 16:06:53;;;;;;;1.70;1.23;;;6.90;99.90;;;;;;5015757;28;20206;-71
2023/01/12 16:09:19;;;;;;;2.28;0.80;;;6.90;99.90;;;;;;5015582;28;20228;-71
2023/01/12 16:11:46;;;;;;;1.15;0.70;;;6.90;99.90;;;;;;5015582;28;20202;-71
2023/01/12 16:14:14;;;;;;;1.77;1.10;;;6.90;99.90;;;;;;5015633;28;20203;-72
2023/01/12 16:16:41;;;;;;;1.15;1.05;;;6.80;99.90;;;;;;5015430;28;20213;-72
2023/01/12 16:19:09;;;;;;;2.38;1.00;;;6.90;99.90;;;;;;5015526;28;20229;-73
2023/01/12 16:21:36;;;;;;;3.72;0.80;;;6.90;99.90;;;;;;5015488;28;20236;-73
2023/01/12 16:24:03;;;;;;;1.35;1.00;;;6.80;99.90;;;;;;5015406;28;20206;-74
2023/01/12 16:26:30;;;;;;;0.65;0.65;;;7.00;99.90;;;;;;5015377;28;20237;-73
2023/01/12 16:28:57;;;;;;;2.35;1.13;;;6.90;99.90;;;;;;5015283;28;20620;-74
2023/01/12 16:31:24;;;;;;;0.70;0.70;;;6.90;99.90;;;;;;5015269;28;20202;-75
2023/01/12 16:33:51;;;;;;;1.27;0.82;;;7.00;99.90;;;;;;5015272;28;20230;-75
2023/01/12 16:36:19;;;;;;;1.23;0.60;;;6.90;99.90;;;;;;5015220;28;20201;-75
2023/01/12 16:38:46;;;;;;;6.53;3.65;;;6.90;99.90;;;;;;5013970;28;20225;-76
2023/01/12 16:41:17;;;;;;;3.47;1.58;;;6.80;99.90;;;;;;5015172;28;20225;-74
2023/01/12 16:43:44;;;;;;;1.85;1.08;;;6.90;99.90;;;;;;5015111;28;20242;-74
2023/01/12 16:46:12;;;;;;;2.15;0.60;;;7.00;99.90;;;;;;5015059;28;20209;-74
2023/01/12 16:48:40;;;;;;;3.92;0.90;;;7.00;99.90;;;;;;5015104;28;20226;-74
2023/01/12 16:51:10;;;;;;;1.20;0.73;;;7.00;99.90;;;;;;5015105;28;20202;-73
2023/01/12 16:53:40;;;;;;;1.10;0.65;;;6.90;99.90;;;;;;5015039;28;20222;-74
2023/01/12 16:56:07;;;;;;;1.17;0.75;;;6.90;99.90;;;;;;5015000;28;20202;-74
2023/01/12 16:58:34;;;;;;;3.72;0.77;;;6.90;99.90;;;;;;5015067;28;20260;-72
2023/01/12 17:01:01;;;;;;;1.90;0.77;;;7.10;99.90;;;;;;5014429;28;20213;-75
2023/01/12 17:03:27;;;;;;;0.73;0.73;;;7.30;99.90;;;;;;5014501;28;20567;-75
2023/01/12 17:05:54;;;;;;;4.10;1.63;;;7.20;99.90;;;;;;5014800;28;20198;-76
2023/01/12 17:08:21;;;;;;;2.03;1.10;;;7.20;99.90;;;;;;5014423;28;20732;-75
2023/01/12 17:10:49;;;;;;;1.10;1.10;;;7.10;99.90;;;;;;5014765;28;20212;-75
2023/01/12 17:13:16;;;;;;;0.80;0.80;;;7.00;99.90;;;;;;5014720;28;20201;-75
2023/01/12 17:15:42;;;;;;;1.83;1.10;;;6.90;99.90;;;;;;5014543;28;20206;-75
2023/01/12 17:18:09;;;;;;;1.52;1.13;;;6.90;99.90;;;;;;5044671;23;20226;-80
2023/01/12 17:20:36;;;;;;;1.88;1.15;;;6.90;99.90;;;;;;5027374;28;20275;-80
2023/01/12 17:23:02;;;;;;;1.75;1.05;;;6.90;99.90;;;;;;5027139;28;20229;-79
2023/01/12 17:25:29;;;;;;;0.82;0.82;;;6.90;99.90;;;;;;5025341;28;20202;-78
2023/01/12 17:27:57;;;;;;;1.42;1.10;;;6.90;99.90;;;;;;5024694;28;20221;-78
2023/01/12 17:30:25;;;;;;;2.40;0.80;;;6.90;99.90;;;;;;5024152;28;20197;-78
2023/01/12 17:32:52;;;;;;;0.80;0.80;;;7.00;99.90;;;;;;5023670;28;20217;-78
2023/01/12 17:35:19;;;;;;;2.33;0.85;;;7.00;99.90;;;;;;5026457;28;20208;-79
2023/01/12 17:37:46;;;;;;;0.98;0.90;;;6.90;99.90;;;;;;5024701;28;20221;-78
2023/01/12 17:40:12;;;;;;;1.98;0.70;;;6.90;99.90;;;;;;5024011;28;20209;-77
2023/01/12 17:45:25;;;;;;;0.80;0.80;;;6.90;99.90;;;;;;5028730;28;20238;-77
2023/01/12 17:47:52;;;;;;;1.98;0.88;;;6.90;99.90;;;;;;5032598;28;20225;-78
2023/01/12 17:50:19;;;;;;;3.92;0.80;;;6.90;99.90;;;;;;5026565;28;20202;-78
2023/01/12 17:52:46;;;;;;;2.22;0.75;;;6.90;99.90;;;;;;5025197;28;20206;-78
2023/01/12 17:55:13;;;;;;;0.63;0.63;;;6.80;99.90;;;;;;5024721;28;20191;-78
2023/01/12 17:57:40;;;;;;;0.70;0.70;;;6.90;99.90;;;;;;5023181;28;20232;-78
2023/01/12 18:00:14;;;;;;;1.58;0.70;;;6.80;99.90;;;;;;5022039;28;20297;-77
2023/01/12 18:02:42;;;;;;;2.08;0.95;;;6.80;99.90;;;;;;5021991;28;20272;-77
2023/01/12 18:05:10;;;;;;;2.15;0.90;;;6.70;99.90;;;;;;5021210;28;20206;-77
2023/01/12 18:07:36;;;;;;;3.45;0.77;;;6.60;99.90;;;;;;5023418;28;20217;-78
2023/01/12 18:10:03;;;;;;;1.25;0.80;;;6.60;99.90;;;;;;5025527;28;20198;-80
2023/01/12 18:12:30;;;;;;;1.95;1.20;;;6.60;99.90;;;;;;5026477;28;20198;-80
2023/01/12 18:14:57;;;;;;;1.20;1.10;;;6.60;99.90;;;;;;5026469;28;20268;-79
2023/01/12 18:17:24;;;;;;;1.95;0.80;;;6.60;99.90;;;;;;5024515;28;20740;-79
2023/01/12 18:19:52;;;;;;;2.50;0.80;;;6.60;99.90;;;;;;5023731;28;20191;-81
2023/01/12 18:22:19;;;;;;;1.25;1.05;;;6.60;99.90;;;;;;5024443;28;20202;-82
2023/01/12 18:24:46;;;;;;;0.80;0.70;;;6.70;99.90;;;;;;5019919;28;20236;-80
2023/01/12 18:27:13;;;;;;;1.65;0.90;;;6.70;99.90;;;;;;5025106;28;20216;-77
2023/01/12 18:29:40;;;;;;;2.63;1.30;;;6.60;99.90;;;;;;5022103;28;20205;-78
2023/01/12 18:32:07;;;;;;;2.17;0.90;;;6.60;99.90;;;;;;5025900;28;20240;-78
2023/01/12 18:34:34;;;;;;;1.67;0.82;;;6.60;99.90;;;;;;5024107;28;20205;-79
2023/01/12 18:37:02;;;;;;;1.08;1.02;;;6.50;99.90;;;;;;5020579;28;20270;-76
2023/01/12 18:39:29;;;;;;;1.00;1.00;;;6.50;99.90;;;;;;5015876;28;20218;-76
2023/01/12 18:44:40;;;;;;;2.30;1.67;;;6.40;99.90;;;;;;5015216;28;20217;-76
2023/01/12 18:49:53;;;;;;;1.00;0.90;;;6.50;99.90;;;;;;5015547;28;20228;-77
2023/01/12 18:55:06;;;;;;;2.40;0.70;;;6.40;99.90;;;;;;5020258;28;20186;-79
2023/01/12 18:57:33;;;;;;;0.98;0.82;;;6.40;99.90;;;;;;5023311;28;20222;-79
2023/01/12 19:00:12;;;;;;;1.20;1.10;;;6.50;99.90;;;;;;5022905;28;20610;-77
2023/01/12 19:02:39;;;;;;;4.70;1.00;;;6.50;99.90;;;;;;5020634;28;20201;-76
2023/01/12 19:05:18;;;;;;;2.50;0.77;;;6.50;99.90;;;;;;5020149;28;20292;-78
2023/01/12 19:09:33;;;;;;;1.48;1.27;;;6.50;99.90;;;;;;5019802;28;20308;-77
2023/01/12 19:10:51;;;;;;;1.40;1.17;;;6.50;99.90;;;;;;5019896;28;20260;-77
2023/01/12 19:18:46;;;;;;;1.80;0.60;;;6.60;99.90;;;;;;5018379;28;20593;-77